sensor_id;sensor_type;location;lat;lon;timestamp;pressure;altitude;pressure_sealevel;temperature;humidity
13661;BME280;6903;49.480;11.102;2022-07-29T00:01:18;97733.16;;;22.31;59.28
13661;BME280;6903;49.480;11.102;2022-07-29T00:03:43;97742.22;;;22.23;59.72
13661;BME280;6903;49.480;11.102;2022-07-29T00:06:08;97726.53;;;22.20;59.82
13661;BME280;6903;49.480;11.102;2022-07-29T00:08:34;97729.81;;;22.16;59.82
13661;BME280;6903;49.480;11.102;2022-07-29T00:10:59;97737.53;;;22.32;59.47
13661;BME280;6903;49.480;11.102;2022-07-29T00:13:24;97718.22;;;22.15;59.52
13661;BME280;6903;49.480;11.102;2022-07-29T00:15:49;97726.50;;;22.14;59.65
13661;BME280;6903;49.480;11.102;2022-07-29T00:18:15;97722.19;;;22.19;59.56
13661;BME280;6903;49.480;11.102;2022-07-29T00:20:40;97728.56;;;22.18;59.65
13661;BME280;6903;49.480;11.102;2022-07-29T00:23:05;97715.31;;;22.10;59.59
13661;BME280;6903;49.480;11.102;2022-07-29T00:25:31;97714.09;;;22.13;59.61
13661;BME280;6903;49.480;11.102;2022-07-29T00:27:56;97705.81;;;22.08;59.93
13661;BME280;6903;49.480;11.102;2022-07-29T00:30:21;97709.50;;;22.07;59.99
13661;BME280;6903;49.480;11.102;2022-07-29T00:32:47;97704.13;;;22.07;59.80
13661;BME280;6903;49.480;11.102;2022-07-29T00:35:12;97714.75;;;22.21;59.24
13661;BME280;6903;49.480;11.102;2022-07-29T00:37:56;97714.09;;;22.13;59.38
13661;BME280;6903;49.480;11.102;2022-07-29T00:40:21;97706.22;;;22.05;59.72
13661;BME280;6903;49.480;11.102;2022-07-29T00:42:49;97700.69;;;22.13;59.52
13661;BME280;6903;49.480;11.102;2022-07-29T00:45:16;97699.00;;;22.12;59.04
13661;BME280;6903;49.480;11.102;2022-07-29T00:47:42;97690.72;;;22.07;59.75
13661;BME280;6903;49.480;11.102;2022-07-29T00:50:08;97688.88;;;22.07;59.56
13661;BME280;6903;49.480;11.102;2022-07-29T00:52:36;97692.38;;;22.08;59.45
13661;BME280;6903;49.480;11.102;2022-07-29T00:55:03;97702.31;;;22.14;59.02
13661;BME280;6903;49.480;11.102;2022-07-29T00:57:29;97693.38;;;22.00;59.42
13661;BME280;6903;49.480;11.102;2022-07-29T00:59:55;97700.41;;;22.01;59.51
13661;BME280;6903;49.480;11.102;2022-07-29T01:02:21;97691.31;;;22.02;59.44
13661;BME280;6903;49.480;11.102;2022-07-29T01:04:46;97688.59;;;21.96;59.60
13661;BME280;6903;49.480;11.102;2022-07-29T01:07:11;97690.69;;;21.94;59.85
13661;BME280;6903;49.480;11.102;2022-07-29T01:09:37;97680.13;;;21.99;59.64
13661;BME280;6903;49.480;11.102;2022-07-29T01:12:03;97679.06;;;21.87;59.63
13661;BME280;6903;49.480;11.102;2022-07-29T01:14:30;97674.31;;;21.82;59.86
13661;BME280;6903;49.480;11.102;2022-07-29T01:17:02;97694.50;;;21.78;60.28
13661;BME280;6903;49.480;11.102;2022-07-29T01:22:35;97721.38;;;21.85;60.24
13661;BME280;6903;49.480;11.102;2022-07-29T01:25:19;97734.19;;;21.89;60.10
13661;BME280;6903;49.480;11.102;2022-07-29T01:30:55;97726.78;;;21.91;60.40
13661;BME280;6903;49.480;11.102;2022-07-29T01:33:23;97719.16;;;21.95;60.52
13661;BME280;6903;49.480;11.102;2022-07-29T01:36:14;97708.59;;;21.87;60.83
13661;BME280;6903;49.480;11.102;2022-07-29T01:38:44;97720.75;;;21.83;61.39
13661;BME280;6903;49.480;11.102;2022-07-29T01:41:19;97709.75;;;21.78;61.42
13661;BME280;6903;49.480;11.102;2022-07-29T01:43:56;97709.75;;;21.78;61.76
13661;BME280;6903;49.480;11.102;2022-07-29T01:46:35;97712.16;;;21.66;62.21
13661;BME280;6903;49.480;11.102;2022-07-29T01:49:11;97706.78;;;21.66;62.06
13661;BME280;6903;49.480;11.102;2022-07-29T01:51:49;97710.88;;;21.62;61.99
13661;BME280;6903;49.480;11.102;2022-07-29T01:54:30;97708.16;;;21.56;62.29
13661;BME280;6903;49.480;11.102;2022-07-29T01:56:58;97703.59;;;21.50;62.71
13661;BME280;6903;49.480;11.102;2022-07-29T01:59:25;97697.56;;;21.48;62.94
13661;BME280;6903;49.480;11.102;2022-07-29T02:01:53;97697.13;;;21.44;63.36
13661;BME280;6903;49.480;11.102;2022-07-29T02:04:20;97701.69;;;21.44;63.37
13661;BME280;6903;49.480;11.102;2022-07-29T02:06:48;97695.50;;;21.43;63.42
13661;BME280;6903;49.480;11.102;2022-07-29T02:09:14;97691.97;;;21.43;63.58
13661;BME280;6903;49.480;11.102;2022-07-29T02:11:47;97691.34;;;21.41;64.13
13661;BME280;6903;49.480;11.102;2022-07-29T02:14:14;97691.91;;;21.36;63.80
13661;BME280;6903;49.480;11.102;2022-07-29T02:16:41;97683.81;;;21.30;64.42
13661;BME280;6903;49.480;11.102;2022-07-29T02:19:07;97693.31;;;21.26;64.62
13661;BME280;6903;49.480;11.102;2022-07-29T02:21:35;97692.22;;;21.20;64.82
13661;BME280;6903;49.480;11.102;2022-07-29T02:24:01;97690.75;;;21.18;65.11
13661;BME280;6903;49.480;11.102;2022-07-29T02:26:29;97689.47;;;21.14;65.55
13661;BME280;6903;49.480;11.102;2022-07-29T02:28:57;97688.88;;;21.12;66.04
13661;BME280;6903;49.480;11.102;2022-07-29T02:31:26;97683.88;;;21.08;66.35
13661;BME280;6903;49.480;11.102;2022-07-29T02:33:54;97689.81;;;21.04;66.64
13661;BME280;6903;49.480;11.102;2022-07-29T02:36:22;97691.44;;;20.98;66.84
13661;BME280;6903;49.480;11.102;2022-07-29T02:38:48;97693.28;;;20.98;66.96
13661;BME280;6903;49.480;11.102;2022-07-29T02:41:23;97692.25;;;20.99;66.80
13661;BME280;6903;49.480;11.102;2022-07-29T02:43:52;97682.91;;;20.95;67.13
13661;BME280;6903;49.480;11.102;2022-07-29T02:46:25;97685.97;;;20.92;67.23
13661;BME280;6903;49.480;11.102;2022-07-29T02:48:59;97693.19;;;20.91;67.34
13661;BME280;6903;49.480;11.102;2022-07-29T02:51:36;97688.41;;;20.87;67.35
13661;BME280;6903;49.480;11.102;2022-07-29T02:54:07;97684.25;;;20.84;67.63
13661;BME280;6903;49.480;11.102;2022-07-29T02:56:34;97687.06;;;20.76;68.05
13661;BME280;6903;49.480;11.102;2022-07-29T02:59:04;97681.81;;;20.68;68.58
13661;BME280;6903;49.480;11.102;2022-07-29T03:01:32;97680.38;;;20.66;68.98
13661;BME280;6903;49.480;11.102;2022-07-29T03:04:01;97686.75;;;20.65;68.77
13661;BME280;6903;49.480;11.102;2022-07-29T03:06:28;97684.28;;;20.63;68.85
13661;BME280;6903;49.480;11.102;2022-07-29T03:08:57;97683.06;;;20.66;68.70
13661;BME280;6903;49.480;11.102;2022-07-29T03:11:24;97683.69;;;20.68;68.79
13661;BME280;6903;49.480;11.102;2022-07-29T03:13:50;97675.66;;;20.68;68.88
13661;BME280;6903;49.480;11.102;2022-07-29T03:16:16;97683.13;;;20.72;69.03
13661;BME280;6903;49.480;11.102;2022-07-29T03:18:43;97685.41;;;20.75;68.58
13661;BME280;6903;49.480;11.102;2022-07-29T03:21:08;97690.13;;;20.73;68.41
13661;BME280;6903;49.480;11.102;2022-07-29T03:23:34;97690.38;;;20.78;68.12
13661;BME280;6903;49.480;11.102;2022-07-29T03:25:59;97689.38;;;20.79;68.07
13661;BME280;6903;49.480;11.102;2022-07-29T03:28:25;97688.53;;;20.79;67.84
13661;BME280;6903;49.480;11.102;2022-07-29T03:30:52;97686.69;;;20.79;67.91
13661;BME280;6903;49.480;11.102;2022-07-29T03:33:18;97688.72;;;20.77;68.01
13661;BME280;6903;49.480;11.102;2022-07-29T03:35:43;97683.81;;;20.81;67.79
13661;BME280;6903;49.480;11.102;2022-07-29T03:38:08;97686.06;;;20.77;67.46
13661;BME280;6903;49.480;11.102;2022-07-29T03:40:38;97683.75;;;20.74;67.77
13661;BME280;6903;49.480;11.102;2022-07-29T03:43:07;97682.91;;;20.74;67.96
13661;BME280;6903;49.480;11.102;2022-07-29T03:45:34;97686.44;;;20.74;67.62
13661;BME280;6903;49.480;11.102;2022-07-29T03:48:08;97680.44;;;20.72;67.60
13661;BME280;6903;49.480;11.102;2022-07-29T03:50:35;97688.09;;;20.75;67.41
13661;BME280;6903;49.480;11.102;2022-07-29T03:53:01;97684.56;;;20.75;67.31
13661;BME280;6903;49.480;11.102;2022-07-29T03:55:28;97694.66;;;20.73;67.61
13661;BME280;6903;49.480;11.102;2022-07-29T03:57:55;97686.44;;;20.74;66.76
13661;BME280;6903;49.480;11.102;2022-07-29T04:00:23;97683.13;;;20.72;67.39
13661;BME280;6903;49.480;11.102;2022-07-29T04:02:48;97690.56;;;20.77;67.56
13661;BME280;6903;49.480;11.102;2022-07-29T04:05:15;97684.16;;;20.71;67.76
13661;BME280;6903;49.480;11.102;2022-07-29T04:07:46;97689.84;;;20.68;67.65
13661;BME280;6903;49.480;11.102;2022-07-29T04:10:12;97696.91;;;20.69;68.04
13661;BME280;6903;49.480;11.102;2022-07-29T04:12:38;97689.50;;;20.71;67.37
13661;BME280;6903;49.480;11.102;2022-07-29T04:15:04;97694.59;;;20.66;68.07
13661;BME280;6903;49.480;11.102;2022-07-29T04:17:29;97692.31;;;20.63;68.27
13661;BME280;6903;49.480;11.102;2022-07-29T04:19:54;97695.34;;;20.60;68.42
13661;BME280;6903;49.480;11.102;2022-07-29T04:22:20;97692.25;;;20.57;68.98
13661;BME280;6903;49.480;11.102;2022-07-29T04:24:45;97695.13;;;20.55;69.25
13661;BME280;6903;49.480;11.102;2022-07-29T04:27:10;97700.28;;;20.57;69.31
13661;BME280;6903;49.480;11.102;2022-07-29T04:29:35;97711.00;;;20.57;69.37
13661;BME280;6903;49.480;11.102;2022-07-29T04:32:01;97698.59;;;20.56;69.31
13661;BME280;6903;49.480;11.102;2022-07-29T04:34:26;97708.75;;;20.60;69.27
13661;BME280;6903;49.480;11.102;2022-07-29T04:36:51;97709.78;;;20.59;69.50
13661;BME280;6903;49.480;11.102;2022-07-29T04:39:17;97718.19;;;20.56;69.47
13661;BME280;6903;49.480;11.102;2022-07-29T04:41:44;97710.53;;;20.53;70.09
13661;BME280;6903;49.480;11.102;2022-07-29T04:44:09;97712.75;;;20.50;70.05
13661;BME280;6903;49.480;11.102;2022-07-29T04:46:35;97716.28;;;20.50;70.45
13661;BME280;6903;49.480;11.102;2022-07-29T04:49:01;97716.47;;;20.49;70.62
13661;BME280;6903;49.480;11.102;2022-07-29T04:51:26;97719.31;;;20.47;71.04
13661;BME280;6903;49.480;11.102;2022-07-29T04:53:52;97723.47;;;20.50;71.03
13661;BME280;6903;49.480;11.102;2022-07-29T04:56:17;97730.94;;;20.54;70.74
13661;BME280;6903;49.480;11.102;2022-07-29T04:58:42;97727.88;;;20.57;71.18
13661;BME280;6903;49.480;11.102;2022-07-29T05:01:08;97718.84;;;20.58;70.93
13661;BME280;6903;49.480;11.102;2022-07-29T05:03:33;97732.50;;;20.63;70.99
13661;BME280;6903;49.480;11.102;2022-07-29T05:05:58;97737.66;;;20.65;71.10
13661;BME280;6903;49.480;11.102;2022-07-29T05:08:24;97729.81;;;20.63;71.25
13661;BME280;6903;49.480;11.102;2022-07-29T05:10:49;97740.22;;;20.73;71.08
13661;BME280;6903;49.480;11.102;2022-07-29T05:13:14;97735.81;;;20.86;70.62
13661;BME280;6903;49.480;11.102;2022-07-29T05:15:41;97731.53;;;20.92;70.39
13661;BME280;6903;49.480;11.102;2022-07-29T05:18:06;97741.34;;;20.99;70.70
13661;BME280;6903;49.480;11.102;2022-07-29T05:20:31;97736.75;;;21.15;70.31
13661;BME280;6903;49.480;11.102;2022-07-29T05:22:59;97744.31;;;21.60;69.35
13661;BME280;6903;49.480;11.102;2022-07-29T05:25:25;97741.81;;;22.20;67.15
13661;BME280;6903;49.480;11.102;2022-07-29T05:27:52;97742.50;;;22.95;64.40
13661;BME280;6903;49.480;11.102;2022-07-29T05:30:18;97735.50;;;23.72;61.69
13661;BME280;6903;49.480;11.102;2022-07-29T05:32:43;97739.50;;;24.40;59.50
13661;BME280;6903;49.480;11.102;2022-07-29T05:35:09;97745.34;;;24.75;57.29
13661;BME280;6903;49.480;11.102;2022-07-29T05:37:34;97739.50;;;25.16;55.65
13661;BME280;6903;49.480;11.102;2022-07-29T05:39:59;97737.94;;;25.57;53.58
13661;BME280;6903;49.480;11.102;2022-07-29T05:42:25;97741.41;;;25.82;53.16
13661;BME280;6903;49.480;11.102;2022-07-29T05:44:51;97747.50;;;26.38;50.80
13661;BME280;6903;49.480;11.102;2022-07-29T05:47:17;97739.44;;;26.68;49.68
13661;BME280;6903;49.480;11.102;2022-07-29T05:49:42;97741.56;;;26.66;48.93
13661;BME280;6903;49.480;11.102;2022-07-29T05:52:08;97746.13;;;26.48;48.55
13661;BME280;6903;49.480;11.102;2022-07-29T05:54:34;97743.81;;;26.51;48.42
13661;BME280;6903;49.480;11.102;2022-07-29T05:57:00;97744.03;;;26.68;48.13
13661;BME280;6903;49.480;11.102;2022-07-29T05:59:25;97750.34;;;27.09;47.44
13661;BME280;6903;49.480;11.102;2022-07-29T06:01:51;97754.56;;;27.69;45.71
13661;BME280;6903;49.480;11.102;2022-07-29T06:04:16;97741.50;;;28.24;44.87
13661;BME280;6903;49.480;11.102;2022-07-29T06:06:41;97742.59;;;28.63;44.24
13661;BME280;6903;49.480;11.102;2022-07-29T06:09:07;97743.44;;;28.63;43.23
13661;BME280;6903;49.480;11.102;2022-07-29T06:11:32;97744.66;;;28.56;43.33
13661;BME280;6903;49.480;11.102;2022-07-29T06:13:58;97747.56;;;28.66;43.07
13661;BME280;6903;49.480;11.102;2022-07-29T06:16:23;97746.28;;;28.45;43.51
13661;BME280;6903;49.480;11.102;2022-07-29T06:18:48;97746.03;;;28.70;42.94
13661;BME280;6903;49.480;11.102;2022-07-29T06:21:14;97751.44;;;28.70;42.56
13661;BME280;6903;49.480;11.102;2022-07-29T06:23:39;97756.28;;;29.08;42.32
13661;BME280;6903;49.480;11.102;2022-07-29T06:26:04;97744.44;;;29.14;42.29
13661;BME280;6903;49.480;11.102;2022-07-29T06:28:31;97741.03;;;29.35;42.24
13661;BME280;6903;49.480;11.102;2022-07-29T06:30:57;97744.91;;;29.88;41.73
13661;BME280;6903;49.480;11.102;2022-07-29T06:33:22;97747.13;;;29.91;41.04
13661;BME280;6903;49.480;11.102;2022-07-29T06:35:47;97726.19;;;29.92;40.90
13661;BME280;6903;49.480;11.102;2022-07-29T06:38:15;97737.28;;;30.23;40.49
13661;BME280;6903;49.480;11.102;2022-07-29T06:40:41;97738.31;;;30.61;39.88
13661;BME280;6903;49.480;11.102;2022-07-29T06:43:30;97740.72;;;30.57;39.56
13661;BME280;6903;49.480;11.102;2022-07-29T06:46:11;97743.66;;;29.96;40.07
13661;BME280;6903;49.480;11.102;2022-07-29T06:48:38;97736.38;;;29.35;41.67
13661;BME280;6903;49.480;11.102;2022-07-29T06:51:04;97737.97;;;29.03;42.61
13661;BME280;6903;49.480;11.102;2022-07-29T06:53:30;97746.94;;;29.32;42.74
13661;BME280;6903;49.480;11.102;2022-07-29T06:55:56;97743.25;;;30.42;41.00
13661;BME280;6903;49.480;11.102;2022-07-29T06:58:23;97751.16;;;30.87;40.67
13661;BME280;6903;49.480;11.102;2022-07-29T07:00:49;97752.91;;;31.46;38.81
13661;BME280;6903;49.480;11.102;2022-07-29T07:03:15;97752.34;;;31.44;38.86
13661;BME280;6903;49.480;11.102;2022-07-29T07:05:41;97745.06;;;31.86;38.37
13661;BME280;6903;49.480;11.102;2022-07-29T07:08:06;97748.44;;;32.45;37.18
13661;BME280;6903;49.480;11.102;2022-07-29T07:10:33;97749.78;;;32.37;37.40
13661;BME280;6903;49.480;11.102;2022-07-29T07:12:59;97749.66;;;32.22;36.59
13661;BME280;6903;49.480;11.102;2022-07-29T07:15:24;97752.00;;;32.04;37.72
13661;BME280;6903;49.480;11.102;2022-07-29T07:17:50;97744.53;;;32.31;36.64
13661;BME280;6903;49.480;11.102;2022-07-29T07:20:16;97744.97;;;31.76;37.76
13661;BME280;6903;49.480;11.102;2022-07-29T07:22:41;97746.97;;;31.27;38.53
13661;BME280;6903;49.480;11.102;2022-07-29T07:25:07;97747.56;;;30.81;39.17
13661;BME280;6903;49.480;11.102;2022-07-29T07:27:32;97744.44;;;30.51;39.61
13661;BME280;6903;49.480;11.102;2022-07-29T07:29:58;97745.50;;;30.28;40.39
13661;BME280;6903;49.480;11.102;2022-07-29T07:32:23;97748.03;;;30.35;40.04
13661;BME280;6903;49.480;11.102;2022-07-29T07:34:49;97735.75;;;30.76;39.75
13661;BME280;6903;49.480;11.102;2022-07-29T07:37:14;97743.72;;;31.04;39.59
13661;BME280;6903;49.480;11.102;2022-07-29T07:39:40;97742.69;;;31.10;39.64
13661;BME280;6903;49.480;11.102;2022-07-29T07:42:05;97731.41;;;31.54;39.33
13661;BME280;6903;49.480;11.102;2022-07-29T07:44:31;97730.50;;;32.12;37.68
13661;BME280;6903;49.480;11.102;2022-07-29T07:46:56;97732.41;;;32.58;37.64
13661;BME280;6903;49.480;11.102;2022-07-29T07:49:21;97730.97;;;32.41;36.85
13661;BME280;6903;49.480;11.102;2022-07-29T07:51:47;97734.88;;;31.77;37.95
13661;BME280;6903;49.480;11.102;2022-07-29T07:54:12;97726.81;;;31.55;38.91
13661;BME280;6903;49.480;11.102;2022-07-29T07:56:37;97737.03;;;31.38;39.42
13661;BME280;6903;49.480;11.102;2022-07-29T07:59:02;97730.38;;;31.02;39.37
13661;BME280;6903;49.480;11.102;2022-07-29T08:01:28;97721.97;;;30.82;39.63
13661;BME280;6903;49.480;11.102;2022-07-29T08:03:53;97724.47;;;30.67;39.69
13661;BME280;6903;49.480;11.102;2022-07-29T08:06:18;97734.38;;;30.73;40.32
13661;BME280;6903;49.480;11.102;2022-07-29T08:08:44;97736.84;;;30.75;40.29
13661;BME280;6903;49.480;11.102;2022-07-29T08:11:09;97726.34;;;30.40;41.10
13661;BME280;6903;49.480;11.102;2022-07-29T08:13:35;97719.97;;;30.13;41.37
13661;BME280;6903;49.480;11.102;2022-07-29T08:16:01;97716.91;;;30.26;41.82
13661;BME280;6903;49.480;11.102;2022-07-29T08:18:30;97719.91;;;30.46;41.55
13661;BME280;6903;49.480;11.102;2022-07-29T08:20:56;97714.75;;;30.50;41.45
13661;BME280;6903;49.480;11.102;2022-07-29T08:23:22;97720.41;;;29.88;42.13
13661;BME280;6903;49.480;11.102;2022-07-29T08:25:48;97725.88;;;29.55;42.96
13661;BME280;6903;49.480;11.102;2022-07-29T08:28:14;97723.13;;;29.39;43.85
13661;BME280;6903;49.480;11.102;2022-07-29T08:30:39;97723.19;;;30.10;42.32
13661;BME280;6903;49.480;11.102;2022-07-29T08:33:05;97723.63;;;30.83;41.19
13661;BME280;6903;49.480;11.102;2022-07-29T08:35:30;97728.44;;;30.55;41.40
13661;BME280;6903;49.480;11.102;2022-07-29T08:37:55;97724.59;;;30.51;41.40
13661;BME280;6903;49.480;11.102;2022-07-29T08:40:22;97720.81;;;31.00;41.10
13661;BME280;6903;49.480;11.102;2022-07-29T08:42:48;97717.94;;;31.38;40.55
13661;BME280;6903;49.480;11.102;2022-07-29T08:45:15;97716.97;;;31.86;39.51
13661;BME280;6903;49.480;11.102;2022-07-29T08:47:40;97719.72;;;31.54;40.03
13661;BME280;6903;49.480;11.102;2022-07-29T08:50:07;97713.16;;;31.87;40.11
13661;BME280;6903;49.480;11.102;2022-07-29T08:52:35;97721.53;;;32.17;39.62
13661;BME280;6903;49.480;11.102;2022-07-29T08:55:03;97712.59;;;32.36;39.25
13661;BME280;6903;49.480;11.102;2022-07-29T08:57:29;97720.69;;;32.63;38.71
13661;BME280;6903;49.480;11.102;2022-07-29T08:59:57;97716.22;;;33.14;38.54
13661;BME280;6903;49.480;11.102;2022-07-29T09:02:28;97712.13;;;33.26;38.29
13661;BME280;6903;49.480;11.102;2022-07-29T09:04:54;97717.34;;;33.73;37.48
13661;BME280;6903;49.480;11.102;2022-07-29T09:07:19;97707.22;;;33.93;36.97
13661;BME280;6903;49.480;11.102;2022-07-29T09:09:45;97708.16;;;34.48;36.20
13661;BME280;6903;49.480;11.102;2022-07-29T09:12:11;97703.69;;;35.59;34.83
13661;BME280;6903;49.480;11.102;2022-07-29T09:14:37;97701.66;;;36.03;33.97
13661;BME280;6903;49.480;11.102;2022-07-29T09:17:03;97696.00;;;35.61;33.71
13661;BME280;6903;49.480;11.102;2022-07-29T09:19:35;97702.75;;;35.35;33.44
13661;BME280;6903;49.480;11.102;2022-07-29T09:22:04;97704.94;;;35.38;33.03
13661;BME280;6903;49.480;11.102;2022-07-29T09:26:59;97695.19;;;36.18;32.51
13661;BME280;6903;49.480;11.102;2022-07-29T09:29:24;97697.94;;;37.26;31.44
13661;BME280;6903;49.480;11.102;2022-07-29T09:31:52;97691.75;;;38.11;30.20
13661;BME280;6903;49.480;11.102;2022-07-29T09:34:23;97702.41;;;37.54;29.22
13661;BME280;6903;49.480;11.102;2022-07-29T09:36:50;97685.28;;;37.06;29.69
13661;BME280;6903;49.480;11.102;2022-07-29T09:39:34;97690.38;;;37.50;29.36
13661;BME280;6903;49.480;11.102;2022-07-29T09:42:05;97680.50;;;36.74;29.98
13661;BME280;6903;49.480;11.102;2022-07-29T09:44:44;97676.63;;;36.33;29.98
13661;BME280;6903;49.480;11.102;2022-07-29T09:47:11;97677.94;;;35.55;31.57
13661;BME280;6903;49.480;11.102;2022-07-29T09:49:53;97679.44;;;34.99;31.83
13661;BME280;6903;49.480;11.102;2022-07-29T09:52:20;97674.59;;;34.81;31.98
13661;BME280;6903;49.480;11.102;2022-07-29T09:54:45;97678.53;;;34.60;32.25
13661;BME280;6903;49.480;11.102;2022-07-29T09:57:23;97685.53;;;34.91;32.37
13661;BME280;6903;49.480;11.102;2022-07-29T10:00:04;97681.00;;;35.10;32.09
13661;BME280;6903;49.480;11.102;2022-07-29T10:02:33;97678.91;;;35.98;31.58
13661;BME280;6903;49.480;11.102;2022-07-29T10:05:02;97681.88;;;36.72;30.35
13661;BME280;6903;49.480;11.102;2022-07-29T10:07:49;97687.72;;;35.66;31.38
13661;BME280;6903;49.480;11.102;2022-07-29T10:10:24;97687.53;;;35.19;32.26
13661;BME280;6903;49.480;11.102;2022-07-29T10:12:52;97679.19;;;34.26;33.33
13661;BME280;6903;49.480;11.102;2022-07-29T10:15:19;97675.31;;;34.48;33.97
13661;BME280;6903;49.480;11.102;2022-07-29T10:17:46;97681.44;;;34.19;34.22
13661;BME280;6903;49.480;11.102;2022-07-29T10:20:13;97676.59;;;33.61;35.66
13661;BME280;6903;49.480;11.102;2022-07-29T10:22:39;97680.09;;;32.96;37.31
13661;BME280;6903;49.480;11.102;2022-07-29T10:25:05;97672.09;;;32.75;38.03
13661;BME280;6903;49.480;11.102;2022-07-29T10:27:31;97679.53;;;32.99;38.10
13661;BME280;6903;49.480;11.102;2022-07-29T10:29:56;97686.81;;;32.69;38.88
13661;BME280;6903;49.480;11.102;2022-07-29T10:32:56;97675.88;;;32.02;39.29
13661;BME280;6903;49.480;11.102;2022-07-29T10:43:55;97662.06;;;32.24;39.97
13661;BME280;6903;49.480;11.102;2022-07-29T10:46:22;97661.63;;;32.42;40.16
13661;BME280;6903;49.480;11.102;2022-07-29T10:51:59;97662.31;;;33.94;37.63
13661;BME280;6903;49.480;11.102;2022-07-29T10:59:45;97653.53;;;35.82;34.58
13661;BME280;6903;49.480;11.102;2022-07-29T11:05:03;97637.28;;;35.91;33.94
13661;BME280;6903;49.480;11.102;2022-07-29T11:07:29;97641.91;;;35.67;34.52
13661;BME280;6903;49.480;11.102;2022-07-29T11:15:08;97638.34;;;34.45;36.41
13661;BME280;6903;49.480;11.102;2022-07-29T11:23:27;97631.78;;;34.95;35.81
13661;BME280;6903;49.480;11.102;2022-07-29T11:31:43;97642.69;;;34.56;36.99
13661;BME280;6903;49.480;11.102;2022-07-29T11:34:25;97647.13;;;34.42;37.07
13661;BME280;6903;49.480;11.102;2022-07-29T11:39:32;97637.78;;;33.44;38.81
13661;BME280;6903;49.480;11.102;2022-07-29T11:45:03;97637.75;;;34.58;36.49
13661;BME280;6903;49.480;11.102;2022-07-29T11:47:35;97630.28;;;34.64;36.78
13661;BME280;6903;49.480;11.102;2022-07-29T11:50:02;97630.28;;;34.69;37.05
13661;BME280;6903;49.480;11.102;2022-07-29T11:52:39;97621.78;;;34.11;37.82
13661;BME280;6903;49.480;11.102;2022-07-29T11:55:11;97628.25;;;34.30;37.74
13661;BME280;6903;49.480;11.102;2022-07-29T11:57:57;97614.72;;;34.59;36.99
13661;BME280;6903;49.480;11.102;2022-07-29T12:00:29;97610.25;;;35.74;35.43
13661;BME280;6903;49.480;11.102;2022-07-29T12:02:57;97611.09;;;35.75;34.53
13661;BME280;6903;49.480;11.102;2022-07-29T12:05:32;97606.59;;;36.07;34.21
13661;BME280;6903;49.480;11.102;2022-07-29T12:10:39;97603.69;;;35.99;33.90
13661;BME280;6903;49.480;11.102;2022-07-29T12:13:05;97595.38;;;36.27;33.56
13661;BME280;6903;49.480;11.102;2022-07-29T12:15:31;97596.91;;;35.91;33.42
13661;BME280;6903;49.480;11.102;2022-07-29T12:17:56;97589.22;;;35.36;33.57
13661;BME280;6903;49.480;11.102;2022-07-29T12:20:24;97587.88;;;35.00;34.35
13661;BME280;6903;49.480;11.102;2022-07-29T12:22:49;97575.38;;;34.84;34.57
13661;BME280;6903;49.480;11.102;2022-07-29T12:25:15;97583.56;;;34.94;34.64
13661;BME280;6903;49.480;11.102;2022-07-29T12:27:42;97582.66;;;34.65;34.75
13661;BME280;6903;49.480;11.102;2022-07-29T12:30:12;97574.09;;;35.10;33.81
13661;BME280;6903;49.480;11.102;2022-07-29T12:32:46;97565.22;;;35.75;32.76
13661;BME280;6903;49.480;11.102;2022-07-29T12:35:17;97572.84;;;36.49;31.62
13661;BME280;6903;49.480;11.102;2022-07-29T12:37:46;97571.38;;;36.93;30.27
13661;BME280;6903;49.480;11.102;2022-07-29T12:40:16;97575.72;;;37.13;30.07
13661;BME280;6903;49.480;11.102;2022-07-29T12:43:17;97571.84;;;37.14;28.46
13661;BME280;6903;49.480;11.102;2022-07-29T12:45:50;97577.38;;;36.95;28.90
13661;BME280;6903;49.480;11.102;2022-07-29T12:48:17;97585.03;;;36.99;28.86
13661;BME280;6903;49.480;11.102;2022-07-29T12:50:57;97580.50;;;36.70;28.78
13661;BME280;6903;49.480;11.102;2022-07-29T12:53:23;97568.69;;;36.51;29.58
13661;BME280;6903;49.480;11.102;2022-07-29T12:55:50;97569.34;;;36.43;29.40
13661;BME280;6903;49.480;11.102;2022-07-29T12:58:34;97563.38;;;37.11;28.49
13661;BME280;6903;49.480;11.102;2022-07-29T13:03:50;97554.06;;;37.71;27.06
13661;BME280;6903;49.480;11.102;2022-07-29T13:06:42;97552.53;;;38.05;26.09
13661;BME280;6903;49.480;11.102;2022-07-29T13:09:13;97548.88;;;38.23;26.23
13661;BME280;6903;49.480;11.102;2022-07-29T13:11:52;97545.53;;;38.49;25.80
13661;BME280;6903;49.480;11.102;2022-07-29T13:14:35;97556.44;;;37.77;25.96
13661;BME280;6903;49.480;11.102;2022-07-29T13:19:45;97545.66;;;37.35;26.99
13661;BME280;6903;49.480;11.102;2022-07-29T13:22:13;97543.06;;;36.93;27.80
13661;BME280;6903;49.480;11.102;2022-07-29T13:25:05;97548.63;;;37.39;27.16
13661;BME280;6903;49.480;11.102;2022-07-29T13:27:37;97547.22;;;37.55;27.31
13661;BME280;6903;49.480;11.102;2022-07-29T13:30:08;97551.25;;;37.30;28.09
13661;BME280;6903;49.480;11.102;2022-07-29T13:32:34;97549.00;;;36.63;28.91
13661;BME280;6903;49.480;11.102;2022-07-29T13:35:04;97552.81;;;35.83;30.25
13661;BME280;6903;49.480;11.102;2022-07-29T13:37:30;97561.53;;;35.04;31.79
13661;BME280;6903;49.480;11.102;2022-07-29T13:39:57;97570.69;;;33.82;34.26
13661;BME280;6903;49.480;11.102;2022-07-29T13:42:24;97571.41;;;32.07;38.19
13661;BME280;6903;49.480;11.102;2022-07-29T13:44:50;97577.88;;;31.07;40.54
13661;BME280;6903;49.480;11.102;2022-07-29T13:47:20;97601.22;;;30.45;42.61
13661;BME280;6903;49.480;11.102;2022-07-29T13:49:45;97591.00;;;29.87;45.31
13661;BME280;6903;49.480;11.102;2022-07-29T13:52:11;97600.97;;;29.44;47.63
13661;BME280;6903;49.480;11.102;2022-07-29T13:54:37;97593.97;;;28.81;50.79
13661;BME280;6903;49.480;11.102;2022-07-29T13:57:04;97602.16;;;28.53;52.48
13661;BME280;6903;49.480;11.102;2022-07-29T13:59:29;97590.00;;;28.56;54.21
13661;BME280;6903;49.480;11.102;2022-07-29T14:01:54;97603.19;;;28.24;55.81
13661;BME280;6903;49.480;11.102;2022-07-29T14:04:20;97591.25;;;27.86;57.65